Time;durP1;ratioP1;P1;durP2;ratioP2;P2;SDS_P1;SDS_P2;PMS_P1;PMS_P2;Temp;Humidity;BMP_temperature;BMP_pressure;BME280_temperature;BME280_humidity;BME280_pressure;Samples;Min_cycle;Max_cycle;Signal;HPM_P1;HPM_P2
2022/05/15 00:00:41;;;;;;;12.57;8.93;;;;;;;;;;5049553;28;20425;-77
2022/05/15 00:03:12;;;;;;;9.87;8.87;;;;;;;;;;5049318;28;20441;-76
2022/05/15 00:05:39;;;;;;;9.37;8.47;;;;;;;;;;5050243;28;20487;-79
2022/05/15 00:08:06;;;;;;;9.57;8.67;;;;;;;;;;5066649;28;20457;-77
2022/05/15 00:10:33;;;;;;;11.53;9.00;;;;;;;;;;5075790;28;20440;-77
2022/05/15 00:13:02;;;;;;;9.73;8.73;;;;;;;;;;5069774;28;20440;-77
2022/05/15 00:15:30;;;;;;;8.67;7.97;;;;;;;;;;5069684;28;20883;-77
2022/05/15 00:17:58;;;;;;;10.03;8.30;;;;;;;;;;5069593;28;20460;-78
2022/05/15 00:20:26;;;;;;;9.47;8.57;;;;;;;;;;5069806;28;20526;-77
2022/05/15 00:22:53;;;;;;;8.50;7.70;;;;;;;;;;5069233;28;20476;-76
2022/05/15 00:25:20;;;;;;;9.10;8.30;;;;;;;;;;5069563;28;20444;-77
2022/05/15 00:27:47;;;;;;;8.70;7.90;;;;;;;;;;5069497;28;20907;-77
2022/05/15 00:30:16;;;;;;;8.77;7.97;;;;;;;;;;5069436;28;20508;-77
2022/05/15 00:32:43;;;;;;;9.57;8.57;;;;;;;;;;5069214;28;20452;-76
2022/05/15 00:35:11;;;;;;;9.40;8.47;;;;;;;;;;5069610;28;20539;-76
2022/05/15 00:37:38;;;;;;;9.47;8.10;;;;;;;;;;5069524;28;20560;-77
2022/05/15 00:40:06;;;;;;;8.83;7.90;;;;;;;;;;5069058;28;20482;-77
2022/05/15 00:42:33;;;;;;;8.77;8.03;;;;;;;;;;5069469;28;20545;-77
2022/05/15 00:45:00;;;;;;;8.83;8.13;;;;;;;;;;5069482;28;20453;-76
2022/05/15 00:47:29;;;;;;;9.70;8.17;;;;;;;;;;5069458;28;20514;-76
2022/05/15 00:49:56;;;;;;;8.40;7.60;;;;;;;;;;5069488;28;20432;-77
2022/05/15 00:52:26;;;;;;;10.47;7.70;;;;;;;;;;5069366;28;20447;-77
2022/05/15 00:54:55;;;;;;;8.40;7.67;;;;;;;;;;5069143;28;20467;-77
2022/05/15 00:57:23;;;;;;;10.77;8.40;;;;;;;;;;5069340;28;20483;-76
2022/05/15 00:59:52;;;;;;;8.83;7.93;;;;;;;;;;5069322;28;21014;-76
2022/05/15 01:02:20;;;;;;;8.30;7.50;;;;;;;;;;5069323;28;20444;-77
2022/05/15 01:04:49;;;;;;;9.10;8.23;;;;;;;;;;5069628;28;20448;-77
2022/05/15 01:07:16;;;;;;;8.33;7.60;;;;;;;;;;5060744;28;20462;-76
2022/05/15 01:09:43;;;;;;;9.97;7.90;;;;;;;;;;5049306;28;20450;-76
2022/05/15 01:12:12;;;;;;;10.43;8.20;;;;;;;;;;5049286;28;20461;-77
2022/05/15 01:14:40;;;;;;;8.60;7.77;;;;;;;;;;5049241;28;20449;-76
2022/05/15 01:17:07;;;;;;;8.27;7.47;;;;;;;;;;5053347;28;20472;-77
2022/05/15 01:19:36;;;;;;;8.77;7.97;;;;;;;;;;5052893;28;20478;-77
2022/05/15 01:22:05;;;;;;;6.20;5.70;;;;;;;;;;5053370;28;20449;-76
2022/05/15 01:24:33;;;;;;;6.53;6.03;;;;;;;;;;5054600;28;20867;-76
2022/05/15 01:27:02;;;;;;;7.73;7.03;;;;;;;;;;5056059;28;20441;-77
2022/05/15 01:29:30;;;;;;;7.57;6.87;;;;;;;;;;5056061;28;20487;-76
2022/05/15 01:31:58;;;;;;;8.30;7.10;;;;;;;;;;5054511;28;20532;-77
2022/05/15 01:34:25;;;;;;;7.70;7.00;;;;;;;;;;5053234;28;20457;-76
2022/05/15 01:36:52;;;;;;;7.93;7.20;;;;;;;;;;5052772;28;20457;-77
2022/05/15 01:39:20;;;;;;;7.73;6.93;;;;;;;;;;5052935;28;20481;-76
2022/05/15 01:41:47;;;;;;;8.63;7.47;;;;;;;;;;5052799;28;20498;-77
2022/05/15 01:44:14;;;;;;;7.27;6.67;;;;;;;;;;5052722;28;20449;-77
2022/05/15 01:46:41;;;;;;;8.13;6.60;;;;;;;;;;5052551;28;20446;-76
2022/05/15 01:49:08;;;;;;;8.13;7.33;;;;;;;;;;5052634;28;20464;-76
2022/05/15 01:51:36;;;;;;;8.23;7.53;;;;;;;;;;5052564;28;20842;-77
2022/05/15 01:54:03;;;;;;;8.17;7.47;;;;;;;;;;5054775;28;20449;-78
2022/05/15 01:56:32;;;;;;;7.80;7.10;;;;;;;;;;5052905;28;20453;-76
2022/05/15 01:58:59;;;;;;;8.53;6.90;;;;;;;;;;5052280;28;20489;-77
2022/05/15 02:01:26;;;;;;;10.40;7.80;;;;;;;;;;5052335;28;20465;-76
2022/05/15 02:03:53;;;;;;;10.90;7.90;;;;;;;;;;5052025;28;20473;-78
2022/05/15 02:06:20;;;;;;;9.30;7.43;;;;;;;;;;5052879;28;21003;-78
2022/05/15 02:08:47;;;;;;;8.40;7.70;;;;;;;;;;5071872;28;20762;-76
2022/05/15 02:11:14;;;;;;;8.80;8.00;;;;;;;;;;5072241;28;20539;-77
2022/05/15 02:13:43;;;;;;;8.87;8.00;;;;;;;;;;5071934;28;20445;-77
2022/05/15 02:16:10;;;;;;;11.40;8.57;;;;;;;;;;5071830;28;20445;-77
2022/05/15 02:18:37;;;;;;;10.17;9.37;;;;;;;;;;5072232;28;20460;-77
2022/05/15 02:21:05;;;;;;;9.17;8.27;;;;;;;;;;5071853;28;20476;-77
2022/05/15 02:23:33;;;;;;;9.37;8.57;;;;;;;;;;5071697;28;20975;-77
2022/05/15 02:26:01;;;;;;;9.33;8.53;;;;;;;;;;5071620;28;20433;-77
2022/05/15 02:28:28;;;;;;;9.20;8.30;;;;;;;;;;5071420;28;20468;-76
2022/05/15 02:30:56;;;;;;;9.33;8.40;;;;;;;;;;5072183;28;20447;-78
2022/05/15 02:33:24;;;;;;;10.23;9.23;;;;;;;;;;5071429;28;20547;-77
2022/05/15 02:35:51;;;;;;;9.50;8.60;;;;;;;;;;5071586;28;20451;-77
2022/05/15 02:38:18;;;;;;;8.83;7.87;;;;;;;;;;5071369;28;20468;-77
2022/05/15 02:40:45;;;;;;;8.47;7.77;;;;;;;;;;5071472;28;20472;-78
2022/05/15 02:43:12;;;;;;;8.30;7.50;;;;;;;;;;5071328;28;20449;-76
2022/05/15 02:45:39;;;;;;;9.43;8.00;;;;;;;;;;5071301;28;20983;-76
2022/05/15 02:51:03;;;;;;;8.37;7.57;;;;;;;;;;5071335;28;20490;-77
2022/05/15 02:51:03;;;;;;;8.63;7.83;;;;;;;;;;5071092;28;20437;-77
2022/05/15 02:53:30;;;;;;;8.97;8.17;;;;;;;;;;5070895;28;20444;-77
2022/05/15 02:55:57;;;;;;;8.23;7.53;;;;;;;;;;5071301;28;20456;-77
2022/05/15 02:58:24;;;;;;;9.43;8.53;;;;;;;;;;5071114;28;20526;-77
2022/05/15 03:00:51;;;;;;;8.13;7.53;;;;;;;;;;5071004;28;20553;-77
2022/05/15 03:03:20;;;;;;;8.20;7.60;;;;;;;;;;5070667;28;20502;-77
2022/05/15 03:05:47;;;;;;;8.50;7.70;;;;;;;;;;5070743;28;20456;-77
2022/05/15 03:08:14;;;;;;;8.77;7.97;;;;;;;;;;5054337;28;20760;-76
2022/05/15 03:10:41;;;;;;;7.97;7.23;;;;;;;;;;5050737;28;20468;-76
2022/05/15 03:13:08;;;;;;;8.00;7.40;;;;;;;;;;5050418;28;20442;-76
2022/05/15 03:15:35;;;;;;;7.87;7.17;;;;;;;;;;5051344;28;20453;-78
2022/05/15 03:18:02;;;;;;;7.70;7.03;;;;;;;;;;5051073;28;20473;-77
2022/05/15 03:20:30;;;;;;;7.80;7.10;;;;;;;;;;5049991;28;20539;-77
2022/05/15 03:22:58;;;;;;;7.03;6.53;;;;;;;;;;5052713;28;20503;-77
2022/05/15 03:25:27;;;;;;;7.90;7.20;;;;;;;;;;5053863;28;20453;-77
2022/05/15 03:27:54;;;;;;;7.80;7.20;;;;;;;;;;5054265;28;20466;-77
2022/05/15 03:30:22;;;;;;;8.53;7.20;;;;;;;;;;5053490;28;20503;-76
2022/05/15 03:32:49;;;;;;;7.37;6.70;;;;;;;;;;5052938;28;20850;-77
2022/05/15 03:35:16;;;;;;;7.57;6.97;;;;;;;;;;5051534;28;20442;-76
2022/05/15 03:37:44;;;;;;;7.83;7.03;;;;;;;;;;5050266;28;20465;-76
2022/05/15 03:40:14;;;;;;;7.27;6.70;;;;;;;;;;5051122;28;20481;-76
2022/05/15 03:42:41;;;;;;;7.37;6.70;;;;;;;;;;5050960;28;20635;-77
2022/05/15 03:45:09;;;;;;;7.23;6.63;;;;;;;;;;5050650;28;20811;-76
2022/05/15 03:47:36;;;;;;;7.20;6.50;;;;;;;;;;5050552;28;20476;-77
2022/05/15 03:50:04;;;;;;;7.17;6.57;;;;;;;;;;5051003;28;20485;-75
2022/05/15 03:52:31;;;;;;;7.50;6.90;;;;;;;;;;5050342;28;20456;-77
2022/05/15 03:55:00;;;;;;;7.30;6.70;;;;;;;;;;5050524;28;20459;-76
2022/05/15 03:57:27;;;;;;;7.33;6.67;;;;;;;;;;5050048;28;20467;-77
2022/05/15 03:59:54;;;;;;;7.33;6.70;;;;;;;;;;5050039;28;20477;-76
2022/05/15 04:02:21;;;;;;;8.07;7.37;;;;;;;;;;5050153;28;20442;-76
2022/05/15 04:04:48;;;;;;;6.80;6.30;;;;;;;;;;5050209;28;20445;-77
2022/05/15 04:07:15;;;;;;;7.83;7.03;;;;;;;;;;5058295;28;20460;-76
2022/05/15 04:09:42;;;;;;;6.93;6.40;;;;;;;;;;5070112;28;20437;-78
2022/05/15 04:12:11;;;;;;;7.90;7.07;;;;;;;;;;5070188;28;20457;-77
2022/05/15 04:14:38;;;;;;;7.87;6.70;;;;;;;;;;5073154;28;20490;-76
2022/05/15 04:17:06;;;;;;;7.00;6.40;;;;;;;;;;5075567;28;20547;-77
2022/05/15 04:19:34;;;;;;;7.50;6.70;;;;;;;;;;5074610;28;20437;-76
2022/05/15 04:22:04;;;;;;;7.23;6.03;;;;;;;;;;5076373;28;20445;-77
2022/05/15 04:24:32;;;;;;;6.77;6.27;;;;;;;;;;5075810;28;20478;-77
2022/05/15 04:26:59;;;;;;;6.93;6.40;;;;;;;;;;5075612;28;20445;-76
2022/05/15 04:29:28;;;;;;;7.77;7.00;;;;;;;;;;5074847;28;20452;-77
2022/05/15 04:31:55;;;;;;;11.40;7.30;;;;;;;;;;5070369;28;20440;-77
2022/05/15 04:34:23;;;;;;;9.80;6.87;;;;;;;;;;5069707;28;20968;-77
2022/05/15 04:36:50;;;;;;;7.33;6.83;;;;;;;;;;5070198;28;20437;-77
2022/05/15 04:39:17;;;;;;;7.13;6.47;;;;;;;;;;5069933;28;20463;-77
2022/05/15 04:41:44;;;;;;;7.40;6.50;;;;;;;;;;5069936;28;20499;-77
2022/05/15 04:44:12;;;;;;;7.10;6.47;;;;;;;;;;5069700;28;20537;-77
2022/05/15 04:46:41;;;;;;;7.70;6.60;;;;;;;;;;5070055;28;20452;-77
2022/05/15 04:49:09;;;;;;;7.20;6.50;;;;;;;;;;5070793;28;20882;-77
2022/05/15 04:51:36;;;;;;;6.30;5.70;;;;;;;;;;5073826;28;20486;-77
2022/05/15 04:54:03;;;;;;;7.30;5.90;;;;;;;;;;5073492;28;20555;-77
2022/05/15 04:56:30;;;;;;;6.80;6.20;;;;;;;;;;5073520;28;20449;-78
2022/05/15 04:58:57;;;;;;;6.70;6.07;;;;;;;;;;5073698;28;20465;-77
2022/05/15 05:01:25;;;;;;;6.93;6.10;;;;;;;;;;5073437;28;20526;-77
2022/05/15 05:03:55;;;;;;;6.70;6.10;;;;;;;;;;5072871;28;20936;-77
2022/05/15 05:06:22;;;;;;;6.63;6.20;;;;;;;;;;5072709;28;21205;-77
2022/05/15 05:08:49;;;;;;;6.83;6.23;;;;;;;;;;5053343;28;20465;-77
2022/05/15 05:11:16;;;;;;;5.70;5.23;;;;;;;;;;5053541;28;20521;-77
2022/05/15 05:13:43;;;;;;;7.43;5.67;;;;;;;;;;5053472;28;20490;-77
2022/05/15 05:16:11;;;;;;;7.00;6.10;;;;;;;;;;5053166;28;20955;-77
2022/05/15 05:18:38;;;;;;;6.20;5.70;;;;;;;;;;5053559;28;20461;-76
2022/05/15 05:21:07;;;;;;;6.13;5.53;;;;;;;;;;5053200;28;20535;-77
2022/05/15 05:23:34;;;;;;;6.63;5.87;;;;;;;;;;5053007;28;20441;-75
2022/05/15 05:26:01;;;;;;;7.57;5.10;;;;;;;;;;5053137;28;20444;-77
2022/05/15 05:28:28;;;;;;;7.07;6.47;;;;;;;;;;5052952;28;20511;-77
2022/05/15 05:30:55;;;;;;;8.67;6.03;;;;;;;;;;5053028;28;20445;-76
2022/05/15 05:33:23;;;;;;;6.67;5.97;;;;;;;;;;5052574;28;20441;-77
2022/05/15 05:35:51;;;;;;;6.50;6.00;;;;;;;;;;5052777;28;20445;-76
2022/05/15 05:38:19;;;;;;;6.40;5.80;;;;;;;;;;5052600;28;20473;-76
2022/05/15 05:40:46;;;;;;;6.90;6.30;;;;;;;;;;5052871;28;20480;-77
2022/05/15 05:43:13;;;;;;;9.03;7.13;;;;;;;;;;5052954;28;20445;-76
2022/05/15 05:45:40;;;;;;;7.60;6.67;;;;;;;;;;5052970;28;20448;-77
2022/05/15 05:48:07;;;;;;;6.97;6.27;;;;;;;;;;5053024;28;20530;-76
2022/05/15 05:50:36;;;;;;;7.57;6.70;;;;;;;;;;5052683;28;20976;-76
2022/05/15 05:53:03;;;;;;;7.27;6.67;;;;;;;;;;5052659;28;20449;-77
2022/05/15 05:55:31;;;;;;;6.33;5.83;;;;;;;;;;5052895;28;20457;-76
2022/05/15 05:57:59;;;;;;;6.77;6.17;;;;;;;;;;5053208;28;20466;-76
2022/05/15 06:00:27;;;;;;;5.87;5.47;;;;;;;;;;5052438;28;20563;-76
2022/05/15 06:04:39;;;;;;;11.47;6.30;;;;;;;;;;5052563;28;20453;-76
2022/05/15 06:05:40;;;;;;;7.20;6.13;;;;;;;;;;5052026;28;20446;-76
2022/05/15 06:08:08;;;;;;;6.40;5.70;;;;;;;;;;5067567;28;20461;-76
2022/05/15 06:10:36;;;;;;;7.47;6.67;;;;;;;;;;5072268;28;20498;-76
2022/05/15 06:13:04;;;;;;;7.70;6.90;;;;;;;;;;5071862;28;20463;-76
2022/05/15 06:15:31;;;;;;;6.23;5.73;;;;;;;;;;5071943;28;20498;-76
2022/05/15 06:17:59;;;;;;;5.87;5.37;;;;;;;;;;5072333;28;20464;-77
2022/05/15 06:20:26;;;;;;;7.73;5.50;;;;;;;;;;5071930;28;20930;-76
2022/05/15 06:22:54;;;;;;;6.90;5.70;;;;;;;;;;5071899;28;20445;-76
2022/05/15 06:25:21;;;;;;;7.60;5.67;;;;;;;;;;5072245;28;20445;-76
2022/05/15 06:27:49;;;;;;;6.07;5.57;;;;;;;;;;5071907;28;20465;-75
2022/05/15 06:30:16;;;;;;;6.27;5.77;;;;;;;;;;5071656;28;20456;-74
2022/05/15 06:32:43;;;;;;;5.60;5.20;;;;;;;;;;5071531;28;20498;-74
2022/05/15 06:35:11;;;;;;;7.50;6.70;;;;;;;;;;5072141;28;20449;-76
2022/05/15 06:37:38;;;;;;;5.97;5.37;;;;;;;;;;5071674;28;20892;-75
2022/05/15 06:40:07;;;;;;;6.20;5.70;;;;;;;;;;5071910;28;20472;-76
2022/05/15 06:42:34;;;;;;;5.97;4.83;;;;;;;;;;5070997;28;20448;-76
2022/05/15 06:45:02;;;;;;;7.00;5.57;;;;;;;;;;5071489;28;20440;-76
2022/05/15 06:47:29;;;;;;;5.33;4.90;;;;;;;;;;5071071;28;20456;-76
2022/05/15 06:49:58;;;;;;;5.70;5.30;;;;;;;;;;5071541;28;20509;-76
2022/05/15 06:52:25;;;;;;;5.43;4.93;;;;;;;;;;5071247;28;20445;-76
2022/05/15 06:54:52;;;;;;;5.80;4.40;;;;;;;;;;5071000;28;20464;-76
2022/05/15 06:57:33;;;;;;;5.23;4.73;;;;;;;;;;5071369;28;20469;-76
2022/05/15 07:00:01;;;;;;;4.77;4.30;;;;;;;;;;5070930;28;20815;-76
2022/05/15 07:02:30;;;;;;;6.47;4.23;;;;;;;;;;5071817;28;20518;-76
2022/05/15 07:04:57;;;;;;;5.30;4.90;;;;;;;;;;5071154;28;20441;-75
2022/05/15 07:07:24;;;;;;;5.10;4.50;;;;;;;;;;5061380;28;21091;-76
2022/05/15 07:09:52;;;;;;;6.97;4.20;;;;;;;;;;5051250;28;20645;-76
2022/05/15 07:12:19;;;;;;;4.57;4.03;;;;;;;;;;5050144;28;20449;-77
2022/05/15 07:14:46;;;;;;;4.93;4.43;;;;;;;;;;5050682;28;20448;-76
2022/05/15 07:17:13;;;;;;;4.13;3.47;;;;;;;;;;5050862;28;20836;-76
2022/05/15 07:19:41;;;;;;;4.20;3.60;;;;;;;;;;5050756;28;20472;-75
2022/05/15 07:22:09;;;;;;;4.60;4.30;;;;;;;;;;5050665;28;20818;-77
2022/05/15 07:24:36;;;;;;;4.33;3.93;;;;;;;;;;5050438;28;20450;-75
2022/05/15 07:27:03;;;;;;;3.60;3.40;;;;;;;;;;5049839;28;20465;-75
2022/05/15 07:29:30;;;;;;;3.77;3.47;;;;;;;;;;5050041;28;20947;-76
2022/05/15 07:31:57;;;;;;;4.83;3.70;;;;;;;;;;5050389;28;20449;-75
2022/05/15 07:34:25;;;;;;;3.80;3.40;;;;;;;;;;5049903;28;20528;-75
2022/05/15 07:36:53;;;;;;;4.00;3.70;;;;;;;;;;5050017;28;20899;-76
2022/05/15 07:39:21;;;;;;;5.93;5.33;;;;;;;;;;5050431;28;20441;-76
2022/05/15 07:41:48;;;;;;;5.57;4.93;;;;;;;;;;5050128;28;20568;-77
2022/05/15 07:44:15;;;;;;;3.87;3.57;;;;;;;;;;5050058;28;20426;-75
2022/05/15 07:46:42;;;;;;;4.33;3.93;;;;;;;;;;5050158;28;20442;-76
2022/05/15 07:49:10;;;;;;;3.73;3.10;;;;;;;;;;5050272;28;20446;-75
2022/05/15 07:51:41;;;;;;;4.27;3.33;;;;;;;;;;5050285;28;20919;-76
2022/05/15 07:54:09;;;;;;;4.53;3.77;;;;;;;;;;5050148;28;20442;-75
2022/05/15 07:56:37;;;;;;;3.43;3.23;;;;;;;;;;5050060;28;20949;-76
2022/05/15 07:59:04;;;;;;;4.10;3.67;;;;;;;;;;5049782;28;20977;-75
2022/05/15 08:01:31;;;;;;;4.00;3.10;;;;;;;;;;5049801;28;20520;-75
2022/05/15 08:03:58;;;;;;;3.50;3.20;;;;;;;;;;5049424;28;20445;-76
2022/05/15 08:09:11;;;;;;;7.90;3.23;;;;;;;;;;5069820;28;20420;-77
2022/05/15 08:11:38;;;;;;;7.63;3.37;;;;;;;;;;5069520;28;20914;-76
2022/05/15 08:14:06;;;;;;;4.37;3.13;;;;;;;;;;5069975;28;20445;-75
2022/05/15 08:16:35;;;;;;;3.67;3.37;;;;;;;;;;5069682;28;20530;-75
2022/05/15 08:24:33;;;;;;;3.60;3.10;;;;;;;;;;5069241;28;20474;-75
2022/05/15 08:27:00;;;;;;;4.57;3.00;;;;;;;;;;5069645;28;20532;-75
2022/05/15 08:29:27;;;;;;;3.10;2.90;;;;;;;;;;5069730;28;20441;-75
2022/05/15 08:31:54;;;;;;;3.23;3.00;;;;;;;;;;5070167;28;20503;-75
2022/05/15 08:34:21;;;;;;;4.40;3.23;;;;;;;;;;5069565;28;20478;-75
2022/05/15 08:36:49;;;;;;;6.40;3.50;;;;;;;;;;5069420;28;20467;-75
2022/05/15 08:39:17;;;;;;;2.97;2.73;;;;;;;;;;5070265;28;20488;-76
2022/05/15 08:41:47;;;;;;;3.07;2.87;;;;;;;;;;5070302;28;20481;-75
2022/05/15 08:44:18;;;;;;;2.67;2.47;;;;;;;;;;5070232;28;20873;-74
2022/05/15 08:46:50;;;;;;;6.10;2.63;;;;;;;;;;5069433;28;20479;-75
2022/05/15 08:49:21;;;;;;;7.23;2.87;;;;;;;;;;5069597;28;20456;-75
2022/05/15 08:51:54;;;;;;;4.40;2.43;;;;;;;;;;5069282;28;20437;-75
2022/05/15 08:54:21;;;;;;;5.60;2.90;;;;;;;;;;5069397;28;20518;-76
2022/05/15 08:56:50;;;;;;;3.17;2.50;;;;;;;;;;5069682;28;20448;-74
2022/05/15 08:59:25;;;;;;;3.13;2.47;;;;;;;;;;5069331;28;20527;-75
2022/05/15 09:01:53;;;;;;;2.60;2.50;;;;;;;;;;5069440;28;20498;-75
2022/05/15 09:04:21;;;;;;;2.63;2.43;;;;;;;;;;5068997;28;20437;-75
2022/05/15 09:06:53;;;;;;;3.13;2.80;;;;;;;;;;5064556;28;20830;-75
2022/05/15 09:09:24;;;;;;;3.37;3.00;;;;;;;;;;5049823;28;20456;-75
2022/05/15 09:11:56;;;;;;;5.40;2.50;;;;;;;;;;5049326;28;20491;-75
2022/05/15 09:14:32;;;;;;;3.00;2.43;;;;;;;;;;5049108;28;20489;-74
2022/05/15 09:16:59;;;;;;;3.80;2.33;;;;;;;;;;5048952;28;20945;-74
2022/05/15 09:19:27;;;;;;;3.90;2.97;;;;;;;;;;5049272;28;20446;-75
2022/05/15 09:21:54;;;;;;;5.50;2.80;;;;;;;;;;5049038;28;20520;-74
2022/05/15 09:24:26;;;;;;;3.50;2.80;;;;;;;;;;5048880;28;20885;-74
2022/05/15 09:26:53;;;;;;;2.73;2.50;;;;;;;;;;5049340;28;20508;-76
2022/05/15 09:29:23;;;;;;;7.20;2.60;;;;;;;;;;5049130;28;20453;-75
2022/05/15 09:31:51;;;;;;;3.20;2.40;;;;;;;;;;5049324;28;20446;-74
2022/05/15 09:34:25;;;;;;;2.40;2.23;;;;;;;;;;5048875;28;20835;-76
2022/05/15 09:36:52;;;;;;;2.50;2.30;;;;;;;;;;5051216;28;20453;-77
2022/05/15 09:39:24;;;;;;;3.77;2.47;;;;;;;;;;5052718;28;20446;-75
2022/05/15 09:44:45;;;;;;;4.37;2.77;;;;;;;;;;5052531;28;20416;-75
2022/05/15 09:47:22;;;;;;;3.90;2.47;;;;;;;;;;5052599;28;20469;-76
2022/05/15 09:49:49;;;;;;;2.10;1.97;;;;;;;;;;5052739;28;20932;-76
2022/05/15 09:52:18;;;;;;;3.40;1.90;;;;;;;;;;5052239;28;20437;-77
2022/05/15 09:54:47;;;;;;;2.50;2.23;;;;;;;;;;5051972;28;20468;-75
2022/05/15 09:57:16;;;;;;;3.07;2.40;;;;;;;;;;5052323;28;20535;-76
2022/05/15 09:59:43;;;;;;;3.67;2.23;;;;;;;;;;5052763;28;20448;-75
2022/05/15 10:02:19;;;;;;;2.53;2.07;;;;;;;;;;5052089;28;20477;-75
2022/05/15 10:04:48;;;;;;;3.97;2.23;;;;;;;;;;5051939;28;20441;-75
2022/05/15 10:07:29;;;;;;;7.17;2.63;;;;;;;;;;5060116;28;20488;-75
2022/05/15 10:09:56;;;;;;;2.73;2.40;;;;;;;;;;5072421;28;20927;-74
2022/05/15 10:12:27;;;;;;;6.53;2.40;;;;;;;;;;5071849;28;20460;-75
2022/05/15 10:14:56;;;;;;;2.70;2.47;;;;;;;;;;5072226;28;20488;-77
2022/05/15 10:17:25;;;;;;;2.60;2.33;;;;;;;;;;5071678;28;20996;-75
2022/05/15 10:19:54;;;;;;;2.93;2.23;;;;;;;;;;5071940;28;20444;-75
2022/05/15 10:22:30;;;;;;;4.93;2.60;;;;;;;;;;5071855;28;21066;-76
2022/05/15 10:24:58;;;;;;;3.20;2.07;;;;;;;;;;5071986;28;20531;-77
2022/05/15 10:27:28;;;;;;;3.00;2.60;;;;;;;;;;5071778;28;20461;-76
2022/05/15 10:29:59;;;;;;;2.80;2.23;;;;;;;;;;5072369;28;20506;-77
2022/05/15 10:32:34;;;;;;;3.07;2.67;;;;;;;;;;5073137;28;20441;-76
2022/05/15 10:35:01;;;;;;;2.57;2.17;;;;;;;;;;5073043;28;20447;-75
2022/05/15 10:37:44;;;;;;;3.27;2.43;;;;;;;;;;5072811;28;20465;-76
2022/05/15 10:40:19;;;;;;;4.83;2.40;;;;;;;;;;5071723;28;20436;-76
2022/05/15 10:42:52;;;;;;;2.43;2.20;;;;;;;;;;5071575;28;20994;-75
2022/05/15 10:45:22;;;;;;;3.30;2.30;;;;;;;;;;5071680;28;20482;-74
2022/05/15 10:47:57;;;;;;;2.30;2.10;;;;;;;;;;5071029;28;20473;-75
2022/05/15 10:50:26;;;;;;;2.57;2.37;;;;;;;;;;5071468;28;20448;-74
2022/05/15 10:53:01;;;;;;;3.63;2.60;;;;;;;;;;5070768;28;20472;-75
2022/05/15 10:58:21;;;;;;;3.50;2.07;;;;;;;;;;5071100;28;21066;-75
2022/05/15 11:00:53;;;;;;;3.20;1.90;;;;;;;;;;5071189;28;20590;-75
2022/05/15 11:03:34;;;;;;;2.83;2.20;;;;;;;;;;5070803;28;20470;-74
2022/05/15 11:06:20;;;;;;;2.33;2.13;;;;;;;;;;5070874;28;20865;-74
2022/05/15 11:08:50;;;;;;;3.60;2.20;;;;;;;;;;5050908;28;20465;-75
2022/05/15 11:11:22;;;;;;;5.73;2.20;;;;;;;;;;5050755;28;20454;-76
2022/05/15 11:13:55;;;;;;;2.43;1.73;;;;;;;;;;5050763;28;21002;-76
2022/05/15 11:16:25;;;;;;;2.27;2.07;;;;;;;;;;5050966;28;20452;-74
2022/05/15 11:19:04;;;;;;;3.30;2.30;;;;;;;;;;5050619;28;20466;-75
2022/05/15 11:21:34;;;;;;;2.50;2.10;;;;;;;;;;5050638;28;20464;-74
2022/05/15 11:24:04;;;;;;;3.93;2.30;;;;;;;;;;5049998;28;20524;-74
2022/05/15 11:26:36;;;;;;;2.40;1.90;;;;;;;;;;5050533;28;20453;-75
2022/05/15 11:29:06;;;;;;;2.40;2.07;;;;;;;;;;5050783;28;20832;-74
2022/05/15 11:31:36;;;;;;;2.93;1.93;;;;;;;;;;5050650;28;20545;-75
2022/05/15 11:34:05;;;;;;;2.00;1.90;;;;;;;;;;5049850;28;20827;-76
2022/05/15 11:36:37;;;;;;;2.23;2.03;;;;;;;;;;5049937;28;20936;-74
2022/05/15 11:39:06;;;;;;;2.50;2.30;;;;;;;;;;5050483;28;20480;-74
2022/05/15 11:41:40;;;;;;;1.70;1.60;;;;;;;;;;5050069;28;20537;-75
2022/05/15 11:44:09;;;;;;;3.63;2.33;;;;;;;;;;5049888;28;20456;-76
2022/05/15 11:46:54;;;;;;;4.77;2.30;;;;;;;;;;5050107;28;20936;-75
2022/05/15 11:49:28;;;;;;;1.90;1.80;;;;;;;;;;5050525;28;20491;-75
2022/05/15 11:51:59;;;;;;;4.00;2.57;;;;;;;;;;5050394;28;20437;-75
2022/05/15 11:54:31;;;;;;;2.70;1.97;;;;;;;;;;5050329;28;20441;-75
2022/05/15 11:56:59;;;;;;;2.00;1.80;;;;;;;;;;5050088;28;20457;-75
2022/05/15 11:59:27;;;;;;;2.17;1.97;;;;;;;;;;5049591;28;20849;-75
2022/05/15 12:01:56;;;;;;;2.17;1.97;;;;;;;;;;5049933;28;20448;-75
2022/05/15 12:04:38;;;;;;;2.57;2.33;;;;;;;;;;5049696;28;20527;-76
2022/05/15 12:07:26;;;;;;;2.27;2.10;;;;;;;;;;5056119;28;20453;-76
2022/05/15 12:09:54;;;;;;;4.13;2.07;;;;;;;;;;5044215;28;20470;-75
2022/05/15 12:12:36;;;;;;;2.80;2.30;;;;;;;;;;5069799;28;20440;-75
2022/05/15 12:15:05;;;;;;;2.27;2.07;;;;;;;;;;5069955;28;20498;-75
2022/05/15 12:17:34;;;;;;;2.60;2.00;;;;;;;;;;5069808;28;20858;-75
2022/05/15 12:20:04;;;;;;;4.37;2.27;;;;;;;;;;5069925;28;20449;-76
2022/05/15 12:22:37;;;;;;;1.70;1.60;;;;;;;;;;5069666;28;20848;-76
2022/05/15 12:25:10;;;;;;;2.23;2.00;;;;;;;;;;5069935;28;20445;-75
2022/05/15 12:27:42;;;;;;;2.03;1.93;;;;;;;;;;5069746;28;20548;-77
2022/05/15 12:30:16;;;;;;;2.37;2.17;;;;;;;;;;5069597;28;20448;-75
2022/05/15 12:32:44;;;;;;;2.60;2.40;;;;;;;;;;5069136;28;20447;-76
2022/05/15 12:35:14;;;;;;;1.97;1.83;;;;;;;;;;5069421;28;20471;-75
2022/05/15 12:37:50;;;;;;;2.27;2.03;;;;;;;;;;5069622;28;20475;-75
2022/05/15 12:40:24;;;;;;;3.80;2.07;;;;;;;;;;5069389;28;20498;-75
2022/05/15 12:42:52;;;;;;;2.30;2.17;;;;;;;;;;5069418;28;20693;-76
2022/05/15 12:45:21;;;;;;;1.97;1.87;;;;;;;;;;5069244;28;20449;-75
2022/05/15 12:47:59;;;;;;;2.30;2.13;;;;;;;;;;5069353;28;20507;-75
2022/05/15 12:50:26;;;;;;;3.53;2.30;;;;;;;;;;5069821;28;20938;-74
2022/05/15 12:52:53;;;;;;;3.07;2.40;;;;;;;;;;5069170;28;20510;-74
2022/05/15 12:55:24;;;;;;;2.37;2.10;;;;;;;;;;5069375;28;20452;-74
2022/05/15 12:57:52;;;;;;;1.80;1.70;;;;;;;;;;5069417;28;21025;-75
2022/05/15 13:00:21;;;;;;;2.10;1.87;;;;;;;;;;5069202;28;20444;-75
2022/05/15 13:02:48;;;;;;;3.40;2.27;;;;;;;;;;5068799;28;21048;-75
2022/05/15 13:05:21;;;;;;;6.27;4.23;;;;;;;;;;5069523;28;20455;-74
2022/05/15 13:07:48;;;;;;;2.27;2.07;;;;;;;;;;5056593;28;20973;-74
2022/05/15 13:10:20;;;;;;;34.30;27.63;;;;;;;;;;5049035;28;20449;-77
2022/05/15 13:12:52;;;;;;;3.57;3.03;;;;;;;;;;5052452;28;20536;-76
2022/05/15 13:15:21;;;;;;;10.00;7.00;;;;;;;;;;5053500;28;20434;-75
2022/05/15 13:17:50;;;;;;;2.50;2.30;;;;;;;;;;5052642;28;20868;-74
2022/05/15 13:20:20;;;;;;;6.20;5.10;;;;;;;;;;5053116;28;20522;-75
2022/05/15 13:22:48;;;;;;;4.60;3.60;;;;;;;;;;5052432;28;20477;-75
2022/05/15 13:25:17;;;;;;;3.40;2.97;;;;;;;;;;5053117;28;20553;-75
2022/05/15 13:27:46;;;;;;;14.67;11.80;;;;;;;;;;5052820;28;20465;-76
2022/05/15 13:30:17;;;;;;;3.63;3.30;;;;;;;;;;5053059;28;20918;-75
2022/05/15 13:32:45;;;;;;;2.97;2.63;;;;;;;;;;5052533;28;20990;-75
2022/05/15 13:35:14;;;;;;;6.83;5.40;;;;;;;;;;5052443;28;20449;-75
2022/05/15 13:37:43;;;;;;;10.93;8.10;;;;;;;;;;5052973;28;21020;-75
2022/05/15 13:45:49;;;;;;;3.30;2.80;;;;;;;;;;5052804;28;20417;-75
2022/05/15 13:48:16;;;;;;;2.70;2.07;;;;;;;;;;5052750;28;20491;-75
2022/05/15 13:50:45;;;;;;;2.50;1.80;;;;;;;;;;5052795;28;20499;-74
2022/05/15 13:53:19;;;;;;;3.33;1.80;;;;;;;;;;5052061;28;20938;-76
2022/05/15 13:55:46;;;;;;;1.70;1.60;;;;;;;;;;5052405;28;20490;-74
2022/05/15 13:58:13;;;;;;;3.30;2.10;;;;;;;;;;5052405;28;20650;-74
2022/05/15 14:00:41;;;;;;;4.40;2.20;;;;;;;;;;5052161;28;20445;-75
2022/05/15 14:03:10;;;;;;;1.93;1.70;;;;;;;;;;5052154;28;20481;-75
2022/05/15 14:05:38;;;;;;;3.10;2.20;;;;;;;;;;5052081;28;20448;-75
2022/05/15 14:08:17;;;;;;;2.10;1.70;;;;;;;;;;5066827;28;20838;-77
2022/05/15 14:10:44;;;;;;;2.20;2.00;;;;;;;;;;5071756;28;20452;-75
2022/05/15 14:13:14;;;;;;;2.80;2.60;;;;;;;;;;5072021;28;20761;-76
2022/05/15 14:15:43;;;;;;;2.60;2.33;;;;;;;;;;5071908;28;20444;-76
2022/05/15 14:18:13;;;;;;;3.73;3.50;;;;;;;;;;5072051;28;20479;-75
2022/05/15 14:20:42;;;;;;;4.50;4.10;;;;;;;;;;5071548;28;20485;-74
2022/05/15 14:23:09;;;;;;;2.60;2.40;;;;;;;;;;5070767;28;20936;-75
2022/05/15 14:25:37;;;;;;;2.33;1.70;;;;;;;;;;5071797;28;20501;-75
2022/05/15 14:28:04;;;;;;;2.20;1.67;;;;;;;;;;5071577;28;20468;-76
2022/05/15 14:30:31;;;;;;;3.43;2.37;;;;;;;;;;5072016;28;20472;-76
2022/05/15 14:33:00;;;;;;;2.10;1.80;;;;;;;;;;5071379;28;20437;-75
2022/05/15 14:35:35;;;;;;;3.03;1.80;;;;;;;;;;5071299;28;20448;-76
2022/05/15 14:38:02;;;;;;;2.43;2.23;;;;;;;;;;5071403;28;20460;-75
2022/05/15 14:40:30;;;;;;;2.40;2.10;;;;;;;;;;5071355;28;20519;-76
2022/05/15 14:42:57;;;;;;;4.67;2.30;;;;;;;;;;5071147;28;20476;-74
2022/05/15 14:45:24;;;;;;;2.00;1.90;;;;;;;;;;5071457;28;20444;-76
2022/05/15 14:47:53;;;;;;;2.00;1.80;;;;;;;;;;5071089;28;20861;-74
2022/05/15 14:50:21;;;;;;;4.73;2.23;;;;;;;;;;5071384;28;20444;-75
2022/05/15 14:52:52;;;;;;;4.20;2.30;;;;;;;;;;5071188;28;20451;-76
2022/05/15 14:56:07;;;;;;;1.80;1.60;;;;;;;;;;5071208;28;20502;-75
2022/05/15 14:58:12;;;;;;;2.10;1.90;;;;;;;;;;5071053;28;20457;-75
2022/05/15 15:00:39;;;;;;;2.37;1.97;;;;;;;;;;5070620;28;20441;-75
2022/05/15 15:03:07;;;;;;;1.70;1.60;;;;;;;;;;5070481;28;21061;-75
2022/05/15 15:05:45;;;;;;;2.70;2.50;;;;;;;;;;5071005;28;20445;-75
2022/05/15 15:08:13;;;;;;;3.37;2.37;;;;;;;;;;5055006;28;20560;-75
2022/05/15 15:10:41;;;;;;;3.90;2.30;;;;;;;;;;5050777;28;20524;-75
2022/05/15 15:13:09;;;;;;;2.37;1.83;;;;;;;;;;5050531;28;20827;-75